createdAt,value
2018-04-13T00:00:58.176Z,22.17
2018-04-13T00:03:29.504Z,22.03
2018-04-13T00:06:00.814Z,23.53
2018-04-13T00:08:32.759Z,22.77
2018-04-13T00:11:05.164Z,23.23
2018-04-13T00:13:37.552Z,22.97
2018-04-13T00:16:09.320Z,23.73
2018-04-13T00:18:40.446Z,23.50
2018-04-13T00:21:12.095Z,23.70
2018-04-13T00:23:44.268Z,24.50
2018-04-13T00:26:16.112Z,24.30
2018-04-13T00:28:47.858Z,25.07
2018-04-13T00:31:18.925Z,24.53
2018-04-13T00:33:50.852Z,23.87
2018-04-13T00:36:21.884Z,23.17
2018-04-13T00:38:53.436Z,23.60
2018-04-13T00:41:24.926Z,24.70
2018-04-13T00:43:57.059Z,25.37
2018-04-13T00:46:28.132Z,25.27
2018-04-13T00:48:59.172Z,24.53
2018-04-13T00:51:31.538Z,23.77
2018-04-13T00:54:03.456Z,25.37
2018-04-13T00:56:34.504Z,24.50
2018-04-13T00:59:06.001Z,25.33
2018-04-13T01:01:37.765Z,24.37
2018-04-13T01:04:09.872Z,24.73
2018-04-13T01:06:41.342Z,25.80
2018-04-13T01:09:12.403Z,25.73
2018-04-13T01:11:44.414Z,26.43
2018-04-13T01:14:16.736Z,24.17
2018-04-13T01:16:47.887Z,25.07
2018-04-13T01:19:18.943Z,24.70
2018-04-13T01:21:50.011Z,24.93
2018-04-13T01:24:21.708Z,26.73
2018-04-13T01:26:52.791Z,25.03
2018-04-13T01:29:23.948Z,25.23
2018-04-13T01:31:56.710Z,25.60
2018-04-13T01:34:28.065Z,25.37
2018-04-13T01:36:59.688Z,25.20
2018-04-13T01:39:31.654Z,27.73
2018-04-13T01:42:02.716Z,26.63
2018-04-13T01:44:33.744Z,27.60
2018-04-13T01:47:05.969Z,28.47
2018-04-13T01:49:37.094Z,29.50
2018-04-13T01:52:08.286Z,30.37
2018-04-13T01:54:39.642Z,29.27
2018-04-13T01:57:11.432Z,31.67
2018-04-13T01:59:42.663Z,30.00
2018-04-13T02:02:14.239Z,32.97
2018-04-13T02:04:45.461Z,31.20
2018-04-13T02:07:16.560Z,32.30
2018-04-13T02:09:48.700Z,31.90
2018-04-13T02:12:19.701Z,33.17
2018-04-13T02:14:50.888Z,34.57
2018-04-13T02:17:22.119Z,33.90
2018-04-13T02:19:53.227Z,36.50
2018-04-13T02:22:24.162Z,35.77
2018-04-13T02:24:55.247Z,37.33
2018-04-13T02:27:25.978Z,38.10
2018-04-13T02:29:56.853Z,39.37
2018-04-13T02:32:28.770Z,38.93
2018-04-13T02:34:59.800Z,38.60
2018-04-13T02:37:31.311Z,37.70
2018-04-13T02:40:02.568Z,38.60
2018-04-13T02:42:34.070Z,38.03
2018-04-13T02:45:05.560Z,37.60
2018-04-13T02:47:36.639Z,37.37
2018-04-13T02:50:07.828Z,37.60
2018-04-13T02:53:40.954Z,36.43
2018-04-13T02:56:11.645Z,37.07
2018-04-13T02:58:42.340Z,39.53
2018-04-13T03:01:15.035Z,38.40
2018-04-13T03:03:46.233Z,38.67
2018-04-13T03:06:17.629Z,38.33
2018-04-13T03:08:49.063Z,40.70
2018-04-13T03:11:21.197Z,37.13
2018-04-13T03:13:51.933Z,38.73
2018-04-13T03:16:22.772Z,37.90
2018-04-13T03:18:55.001Z,41.03
2018-04-13T03:21:26.158Z,39.17
2018-04-13T03:23:56.830Z,39.83
2018-04-13T03:26:28.372Z,39.07
2018-04-13T03:28:59.074Z,40.97
2018-04-13T03:31:30.346Z,40.93
2018-04-13T03:34:01.769Z,41.07
2018-04-13T03:36:33.119Z,40.93
2018-04-13T03:39:04.344Z,44.00
2018-04-13T03:41:35.428Z,44.80
2018-04-13T03:44:06.804Z,43.57
2018-04-13T03:46:37.962Z,45.17
2018-04-13T03:49:08.696Z,43.47
2018-04-13T03:51:40.887Z,44.17
2018-04-13T03:54:11.817Z,43.97
2018-04-13T03:56:42.764Z,44.43
2018-04-13T03:59:14.002Z,46.67
2018-04-13T04:01:45.552Z,45.67
2018-04-13T04:04:16.352Z,47.53
2018-04-13T04:06:48.455Z,46.60
2018-04-13T04:09:19.758Z,48.37
2018-04-13T04:11:50.503Z,47.87
2018-04-13T04:14:21.981Z,49.10
2018-04-13T04:16:53.440Z,47.97
2018-04-13T04:19:32.807Z,51.27
2018-04-13T04:22:14.418Z,51.03
2018-04-13T04:25:25.114Z,47.03
2018-04-13T04:27:56.316Z,50.80
2018-04-13T04:30:27.353Z,52.17
2018-04-13T04:32:58.882Z,52.87
2018-04-13T04:35:29.997Z,51.27
2018-04-13T04:38:01.377Z,48.83
2018-04-13T04:40:32.104Z,52.80
2018-04-13T04:43:03.224Z,47.77
2018-04-13T04:45:34.288Z,50.13
2018-04-13T04:48:05.039Z,46.27
2018-04-13T04:50:35.790Z,71.07
2018-04-13T04:53:07.004Z,44.67
2018-04-13T04:55:37.757Z,43.47
2018-04-13T04:58:09.314Z,44.20
2018-04-13T05:00:40.321Z,42.80
2018-04-13T05:03:12.218Z,43.63
2018-04-13T05:05:42.964Z,39.93
2018-04-13T05:08:15.032Z,43.27
2018-04-13T05:10:45.743Z,40.40
2018-04-13T05:13:16.771Z,42.23
2018-04-13T05:15:47.866Z,41.83
2018-04-13T05:18:19.676Z,42.63
2018-04-13T05:20:51.201Z,41.47
2018-04-13T05:23:22.189Z,40.90
2018-04-13T05:25:53.696Z,40.87
2018-04-13T05:28:24.424Z,40.67
2018-04-13T05:30:55.414Z,41.47
2018-04-13T05:33:26.474Z,40.00
2018-04-13T05:35:57.374Z,40.53
2018-04-13T05:38:28.396Z,39.50
2018-04-13T05:40:59.169Z,38.47
2018-04-13T05:43:32.179Z,39.17
2018-04-13T05:46:05.716Z,38.73
2018-04-13T05:48:36.754Z,37.47
2018-04-13T05:51:07.618Z,38.17
2018-04-13T05:53:38.355Z,39.23
2018-04-13T05:56:10.219Z,37.87
2018-04-13T05:58:41.058Z,37.60
2018-04-13T06:01:12.783Z,36.77
2018-04-13T06:03:43.834Z,35.83
2018-04-13T06:06:14.550Z,36.33
2018-04-13T06:08:45.927Z,36.30
2018-04-13T06:11:17.029Z,36.83
2018-04-13T06:13:47.914Z,34.63
2018-04-13T06:16:19.432Z,35.00
2018-04-13T06:18:50.251Z,35.17
2018-04-13T06:21:20.991Z,33.50
2018-04-13T06:23:52.285Z,31.37
2018-04-13T06:26:23.789Z,34.00
2018-04-13T06:28:55.490Z,34.33
2018-04-13T06:31:26.561Z,33.37
2018-04-13T06:33:58.149Z,33.37
2018-04-13T06:36:29.075Z,35.30
2018-04-13T06:39:00.037Z,34.10
2018-04-13T06:41:30.860Z,33.43
2018-04-13T06:44:02.048Z,34.07
2018-04-13T06:46:33.527Z,32.40
2018-04-13T06:49:04.634Z,34.87
2018-04-13T06:51:36.527Z,35.97
2018-04-13T06:54:07.585Z,34.83
2018-04-13T06:56:38.376Z,34.33
2018-04-13T06:59:10.075Z,34.17
2018-04-13T07:01:40.832Z,34.60
2018-04-13T07:04:11.724Z,33.50
2018-04-13T07:06:42.600Z,34.20
2018-04-13T07:09:13.655Z,33.70
2018-04-13T07:11:44.687Z,36.00
2018-04-13T07:14:15.432Z,34.27
2018-04-13T07:16:46.269Z,35.07
2018-04-13T07:19:17.085Z,35.10
2018-04-13T07:21:47.829Z,33.43
2018-04-13T07:24:18.869Z,33.03
2018-04-13T07:26:49.623Z,33.97
2018-04-13T07:29:21.347Z,32.33
2018-04-13T07:31:52.159Z,33.73
2018-04-13T07:34:23.251Z,34.07
2018-04-13T07:36:54.243Z,33.27
2018-04-13T07:39:25.232Z,33.47
2018-04-13T07:41:56.047Z,33.23
2018-04-13T07:44:27.003Z,32.43
2018-04-13T07:46:57.945Z,32.60
2018-04-13T07:49:29.187Z,31.93
2018-04-13T07:52:00.103Z,32.80
2018-04-13T07:54:31.703Z,32.00
2018-04-13T07:57:02.840Z,32.60
2018-04-13T07:59:33.729Z,34.43
2018-04-13T08:02:04.792Z,32.80
2018-04-13T08:04:35.456Z,32.23
2018-04-13T08:07:06.223Z,32.43
2018-04-13T08:09:37.010Z,32.10
2018-04-13T08:12:08.063Z,32.37
2018-04-13T08:14:39.146Z,31.77
2018-04-13T08:17:09.953Z,32.97
2018-04-13T08:19:40.783Z,32.43
2018-04-13T08:22:12.385Z,32.80
2018-04-13T08:24:43.168Z,30.23
2018-04-13T08:27:14.207Z,32.17
2018-04-13T08:29:46.084Z,30.77
2018-04-13T08:32:16.878Z,31.67
2018-04-13T08:34:48.431Z,29.80
2018-04-13T08:37:19.972Z,31.43
2018-04-13T08:39:51.969Z,31.40
2018-04-13T08:42:23.732Z,31.23
2018-04-13T08:44:54.658Z,30.73
2018-04-13T08:47:25.483Z,32.33
2018-04-13T08:49:56.617Z,30.73
2018-04-13T08:52:27.755Z,30.53
2018-04-13T08:54:59.312Z,29.77
2018-04-13T08:57:30.853Z,28.90
2018-04-13T09:00:02.222Z,29.87
2018-04-13T09:02:33.201Z,30.83
2018-04-13T09:05:04.418Z,29.20
2018-04-13T09:07:35.443Z,28.83
2018-04-13T09:10:06.225Z,32.10
2018-04-13T09:12:36.989Z,28.50
2018-04-13T09:15:08.993Z,30.13
2018-04-13T09:17:39.915Z,30.60
2018-04-13T09:20:11.737Z,30.00
2018-04-13T09:22:42.513Z,30.37
2018-04-13T09:25:15.110Z,30.60
2018-04-13T09:27:45.840Z,28.30
2018-04-13T09:30:16.904Z,29.07
2018-04-13T09:32:47.683Z,29.33
2018-04-13T09:35:19.391Z,28.93
2018-04-13T09:37:50.569Z,30.80
2018-04-13T09:40:21.644Z,29.57
2018-04-13T09:42:52.394Z,29.67
2018-04-13T09:45:24.111Z,27.60
2018-04-13T09:47:55.664Z,28.83
2018-04-13T09:50:26.744Z,29.87
2018-04-13T09:52:57.876Z,26.67
2018-04-13T09:55:28.653Z,28.37
2018-04-13T09:57:59.473Z,28.63
2018-04-13T10:00:31.309Z,29.23
2018-04-13T10:03:04.223Z,29.37
2018-04-13T10:05:35.088Z,29.07
2018-04-13T10:08:06.717Z,29.07
2018-04-13T10:10:37.657Z,29.53
2018-04-13T10:13:08.418Z,29.97
2018-04-13T10:15:40.255Z,28.77
2018-04-13T10:18:11.044Z,31.87
2018-04-13T10:20:41.977Z,30.83
2018-04-13T10:23:12.729Z,30.10
2018-04-13T10:25:43.801Z,31.77
2018-04-13T10:28:14.557Z,31.70
2018-04-13T10:30:46.013Z,31.17
2018-04-13T10:33:17.861Z,30.87
2018-04-13T10:35:49.544Z,30.57
2018-04-13T10:38:21.116Z,30.97
2018-04-13T10:40:52.281Z,29.80
2018-04-13T10:43:23.205Z,31.63
2018-04-13T10:45:54.289Z,31.73
2018-04-13T10:48:25.244Z,32.20
2018-04-13T10:50:56.080Z,31.47
2018-04-13T10:53:27.601Z,31.17
2018-04-13T10:55:59.837Z,33.70
2018-04-13T10:58:30.603Z,34.07
2018-04-13T11:01:01.427Z,33.63
2018-04-13T11:03:32.464Z,33.47
2018-04-13T11:06:03.609Z,35.33
2018-04-13T11:08:34.372Z,37.30
2018-04-13T11:11:05.270Z,39.47
2018-04-13T11:13:37.125Z,39.60
2018-04-13T11:16:08.059Z,42.30
2018-04-13T11:18:38.836Z,47.23
2018-04-13T11:21:09.681Z,50.70
2018-04-13T11:23:40.470Z,53.50
2018-04-13T11:26:11.531Z,52.20
2018-04-13T11:28:42.251Z,55.83
2018-04-13T11:31:13.022Z,59.33
2018-04-13T11:33:44.245Z,57.83
2018-04-13T11:36:15.981Z,62.97
2018-04-13T11:38:46.775Z,64.13
2018-04-13T11:41:18.290Z,65.77
2018-04-13T11:43:49.418Z,66.67
2018-04-13T11:46:20.475Z,62.53
2018-04-13T11:48:51.226Z,62.17
2018-04-13T11:51:22.309Z,62.90
2018-04-13T11:53:53.037Z,58.37
2018-04-13T11:56:23.867Z,58.60
2018-04-13T11:58:54.636Z,58.83
2018-04-13T12:01:26.216Z,61.77
2018-04-13T12:03:56.963Z,56.83
2018-04-13T12:06:28.633Z,56.37
2018-04-13T12:08:59.391Z,55.97
2018-04-13T12:11:30.505Z,52.57
2018-04-13T12:14:01.253Z,54.23
2018-04-13T12:16:32.130Z,49.27
2018-04-13T12:19:03.117Z,49.07
2018-04-13T12:21:34.931Z,51.13
2018-04-13T12:24:05.803Z,51.60
2018-04-13T12:26:37.556Z,55.97
2018-04-13T12:29:09.348Z,52.50
2018-04-13T12:31:40.308Z,54.00
2018-04-13T12:34:11.248Z,51.80
2018-04-13T12:36:42.577Z,52.03
2018-04-13T12:39:13.364Z,51.77
2018-04-13T12:41:44.088Z,53.83
2018-04-13T12:44:15.295Z,51.67
2018-04-13T12:46:47.176Z,49.83
2018-04-13T12:49:17.923Z,50.53
2018-04-13T12:51:49.016Z,50.83
2018-04-13T12:54:19.904Z,50.53
2018-04-13T12:56:51.047Z,48.93
2018-04-13T12:59:21.813Z,49.20
2018-04-13T13:01:53.528Z,48.87
2018-04-13T13:04:24.923Z,48.47
2018-04-13T13:06:55.838Z,46.03
2018-04-13T13:09:26.587Z,43.83
2018-04-13T13:11:58.452Z,46.10
2018-04-13T13:14:29.598Z,45.60
2018-04-13T13:17:00.629Z,44.03
2018-04-13T13:19:32.155Z,42.20
2018-04-13T13:22:03.312Z,43.27
2018-04-13T13:24:34.875Z,42.93
2018-04-13T13:27:05.699Z,43.10
2018-04-13T13:29:37.241Z,40.63
2018-04-13T13:32:08.040Z,39.03
2018-04-13T13:34:39.296Z,38.53
2018-04-13T13:37:10.395Z,37.93
2018-04-13T13:39:41.169Z,36.53
2018-04-13T13:42:12.017Z,36.13
2018-04-13T13:44:42.794Z,38.47
2018-04-13T13:47:14.746Z,35.03
2018-04-13T13:49:46.286Z,32.53
2018-04-13T13:52:17.977Z,32.00
2018-04-13T13:54:48.844Z,30.17
2018-04-13T13:57:19.618Z,30.43
2018-04-13T13:59:51.178Z,29.80
2018-04-13T14:02:22.986Z,30.70
2018-04-13T14:04:53.737Z,29.47
2018-04-13T14:07:25.717Z,31.70
2018-04-13T14:09:56.441Z,32.13
2018-04-13T14:12:27.207Z,32.07
2018-04-13T14:14:59.159Z,31.77
2018-04-13T14:17:31.068Z,28.23
2018-04-13T14:20:01.801Z,27.00
2018-04-13T14:22:32.627Z,25.63
2018-04-13T14:25:03.365Z,24.63
2018-04-13T14:27:34.135Z,23.97
2018-04-13T14:30:04.948Z,25.57
2018-04-13T14:32:36.118Z,25.50
2018-04-13T14:35:06.857Z,26.23
2018-04-13T14:37:37.895Z,22.37
2018-04-13T14:40:09.013Z,21.63
2018-04-13T14:42:39.838Z,22.40
2018-04-13T14:45:10.590Z,23.80
2018-04-13T14:47:41.830Z,22.63
2018-04-13T14:50:12.605Z,24.43
2018-04-13T14:52:43.397Z,22.80
2018-04-13T14:55:14.605Z,24.93
2018-04-13T14:57:45.545Z,22.67
2018-04-13T15:00:16.369Z,23.80
2018-04-13T15:02:47.435Z,24.27
2018-04-13T15:05:18.093Z,23.73
2018-04-13T15:07:48.981Z,24.80
2018-04-13T15:10:19.795Z,25.07
2018-04-13T15:12:51.391Z,26.33
2018-04-13T15:15:22.597Z,24.57
2018-04-13T15:17:53.526Z,25.23
2018-04-13T15:20:24.407Z,24.83
2018-04-13T15:22:55.688Z,23.77
2018-04-13T15:25:26.515Z,25.43
2018-04-13T15:27:57.340Z,24.30
2018-04-13T15:30:28.315Z,23.37
2018-04-13T15:32:59.077Z,25.10
2018-04-13T15:35:29.785Z,25.87
2018-04-13T15:38:01.800Z,26.00
2018-04-13T15:40:32.521Z,26.23
2018-04-13T15:43:03.340Z,26.13
2018-04-13T15:45:34.832Z,27.10
2018-04-13T15:48:06.082Z,29.67
2018-04-13T15:50:36.808Z,30.33
2018-04-13T15:53:08.308Z,28.93
2018-04-13T15:55:39.281Z,30.90
2018-04-13T15:58:10.837Z,31.47
2018-04-13T16:00:41.563Z,31.03
2018-04-13T16:03:12.670Z,33.27
2018-04-13T16:05:43.330Z,32.63
2018-04-13T16:08:14.028Z,32.20
2018-04-13T16:10:44.692Z,32.90
2018-04-13T16:13:15.688Z,33.30
2018-04-13T16:15:47.141Z,33.63
2018-04-13T16:18:23.100Z,33.20
2018-04-13T16:20:54.040Z,30.23
2018-04-13T16:23:24.746Z,32.87
2018-04-13T16:25:55.396Z,33.70
2018-04-13T16:28:26.915Z,32.27
2018-04-13T16:30:57.585Z,34.87
2018-04-13T16:33:29.047Z,34.60
2018-04-13T16:35:59.697Z,34.17
2018-04-13T16:38:30.772Z,35.50
2018-04-13T16:41:01.460Z,36.07
2018-04-13T16:43:32.408Z,35.90
2018-04-13T16:46:03.212Z,35.63
2018-04-13T16:48:34.602Z,36.07
2018-04-13T16:51:05.374Z,36.27
2018-04-13T16:53:36.651Z,35.97
